sensor_id;sensor_type;location;lat;lon;timestamp;temperature;humidity
4566;DHT22;2295;51.050;14.608;2023-06-14T00:00:19;7.40;99.90
4566;DHT22;2295;51.050;14.608;2023-06-14T00:02:48;7.40;99.90
4566;DHT22;2295;51.050;14.608;2023-06-14T00:05:18;7.40;99.90
4566;DHT22;2295;51.050;14.608;2023-06-14T00:07:46;7.40;99.90
4566;DHT22;2295;51.050;14.608;2023-06-14T00:10:15;7.40;99.90
4566;DHT22;2295;51.050;14.608;2023-06-14T00:12:44;7.40;99.90
4566;DHT22;2295;51.050;14.608;2023-06-14T00:15:12;7.50;99.90
4566;DHT22;2295;51.050;14.608;2023-06-14T00:17:40;7.50;99.90
4566;DHT22;2295;51.050;14.608;2023-06-14T00:20:10;7.50;99.90
4566;DHT22;2295;51.050;14.608;2023-06-14T00:22:40;7.40;99.90
4566;DHT22;2295;51.050;14.608;2023-06-14T00:25:08;7.30;99.90
4566;DHT22;2295;51.050;14.608;2023-06-14T00:27:54;7.20;99.90
4566;DHT22;2295;51.050;14.608;2023-06-14T00:30:23;7.20;99.90
4566;DHT22;2295;51.050;14.608;2023-06-14T00:32:52;7.20;99.90
4566;DHT22;2295;51.050;14.608;2023-06-14T00:35:20;7.20;99.90
4566;DHT22;2295;51.050;14.608;2023-06-14T00:37:50;7.20;99.90
4566;DHT22;2295;51.050;14.608;2023-06-14T00:40:18;7.20;99.90
4566;DHT22;2295;51.050;14.608;2023-06-14T00:42:47;7.10;99.90
4566;DHT22;2295;51.050;14.608;2023-06-14T00:45:15;7.00;99.90
4566;DHT22;2295;51.050;14.608;2023-06-14T00:47:46;7.00;99.90
4566;DHT22;2295;51.050;14.608;2023-06-14T00:50:14;6.90;99.90
4566;DHT22;2295;51.050;14.608;2023-06-14T00:52:43;6.90;99.90
4566;DHT22;2295;51.050;14.608;2023-06-14T00:55:13;7.10;99.90
4566;DHT22;2295;51.050;14.608;2023-06-14T00:57:41;7.20;99.90
4566;DHT22;2295;51.050;14.608;2023-06-14T01:00:11;7.30;99.90
4566;DHT22;2295;51.050;14.608;2023-06-14T01:02:40;7.40;99.90
4566;DHT22;2295;51.050;14.608;2023-06-14T01:05:09;7.50;99.90
4566;DHT22;2295;51.050;14.608;2023-06-14T01:07:57;7.60;99.90
4566;DHT22;2295;51.050;14.608;2023-06-14T01:10:37;7.60;99.90
4566;DHT22;2295;51.050;14.608;2023-06-14T01:13:15;7.60;99.90
4566;DHT22;2295;51.050;14.608;2023-06-14T01:15:47;7.60;99.90
4566;DHT22;2295;51.050;14.608;2023-06-14T01:18:17;7.60;99.90
4566;DHT22;2295;51.050;14.608;2023-06-14T01:20:46;7.60;99.90
4566;DHT22;2295;51.050;14.608;2023-06-14T01:23:18;7.60;99.90
4566;DHT22;2295;51.050;14.608;2023-06-14T01:25:48;7.60;99.90
4566;DHT22;2295;51.050;14.608;2023-06-14T01:28:21;7.50;99.90
4566;DHT22;2295;51.050;14.608;2023-06-14T01:30:51;7.50;99.90
4566;DHT22;2295;51.050;14.608;2023-06-14T01:33:21;7.50;99.90
4566;DHT22;2295;51.050;14.608;2023-06-14T01:35:52;7.40;99.90
4566;DHT22;2295;51.050;14.608;2023-06-14T01:38:24;7.30;99.90
4566;DHT22;2295;51.050;14.608;2023-06-14T01:40:55;7.20;99.90
4566;DHT22;2295;51.050;14.608;2023-06-14T01:43:24;7.20;99.90
4566;DHT22;2295;51.050;14.608;2023-06-14T01:45:53;7.10;99.90
4566;DHT22;2295;51.050;14.608;2023-06-14T01:48:22;7.00;99.90
4566;DHT22;2295;51.050;14.608;2023-06-14T01:50:52;6.90;99.90
4566;DHT22;2295;51.050;14.608;2023-06-14T01:53:21;6.90;99.90
4566;DHT22;2295;51.050;14.608;2023-06-14T01:55:50;6.80;99.90
4566;DHT22;2295;51.050;14.608;2023-06-14T01:58:21;6.80;99.90
4566;DHT22;2295;51.050;14.608;2023-06-14T02:00:51;6.90;99.90
4566;DHT22;2295;51.050;14.608;2023-06-14T02:03:22;6.80;99.90
4566;DHT22;2295;51.050;14.608;2023-06-14T02:05:52;6.90;99.90
4566;DHT22;2295;51.050;14.608;2023-06-14T02:08:22;6.90;99.90
4566;DHT22;2295;51.050;14.608;2023-06-14T02:10:51;6.80;99.90
4566;DHT22;2295;51.050;14.608;2023-06-14T02:13:20;6.80;99.90
4566;DHT22;2295;51.050;14.608;2023-06-14T02:15:48;6.90;99.90
4566;DHT22;2295;51.050;14.608;2023-06-14T02:18:20;7.00;99.90
4566;DHT22;2295;51.050;14.608;2023-06-14T02:20:49;7.10;99.90
4566;DHT22;2295;51.050;14.608;2023-06-14T02:23:17;7.20;99.90
4566;DHT22;2295;51.050;14.608;2023-06-14T02:25:47;7.30;99.90
4566;DHT22;2295;51.050;14.608;2023-06-14T02:28:15;7.40;99.90
4566;DHT22;2295;51.050;14.608;2023-06-14T02:30:44;7.40;99.90
4566;DHT22;2295;51.050;14.608;2023-06-14T02:33:12;7.50;99.90
4566;DHT22;2295;51.050;14.608;2023-06-14T02:35:40;7.50;99.90
4566;DHT22;2295;51.050;14.608;2023-06-14T02:38:09;7.60;99.90
4566;DHT22;2295;51.050;14.608;2023-06-14T02:40:38;7.70;99.90
4566;DHT22;2295;51.050;14.608;2023-06-14T02:43:10;7.70;99.90
4566;DHT22;2295;51.050;14.608;2023-06-14T02:45:38;7.80;99.90
4566;DHT22;2295;51.050;14.608;2023-06-14T02:48:07;7.80;99.90
4566;DHT22;2295;51.050;14.608;2023-06-14T02:50:36;7.90;99.90
4566;DHT22;2295;51.050;14.608;2023-06-14T02:53:04;7.90;99.90
4566;DHT22;2295;51.050;14.608;2023-06-14T02:55:33;7.90;99.90
4566;DHT22;2295;51.050;14.608;2023-06-14T02:58:06;7.90;99.90
4566;DHT22;2295;51.050;14.608;2023-06-14T03:00:35;7.80;99.90
4566;DHT22;2295;51.050;14.608;2023-06-14T03:03:05;7.70;99.90
4566;DHT22;2295;51.050;14.608;2023-06-14T03:05:43;7.60;99.90
4566;DHT22;2295;51.050;14.608;2023-06-14T03:08:13;7.60;99.90
4566;DHT22;2295;51.050;14.608;2023-06-14T03:10:43;7.70;99.90
4566;DHT22;2295;51.050;14.608;2023-06-14T03:13:12;7.70;99.90
4566;DHT22;2295;51.050;14.608;2023-06-14T03:15:42;7.80;99.90
4566;DHT22;2295;51.050;14.608;2023-06-14T03:18:12;7.90;99.90
4566;DHT22;2295;51.050;14.608;2023-06-14T03:20:42;7.90;99.90
4566;DHT22;2295;51.050;14.608;2023-06-14T03:23:12;7.90;99.90
4566;DHT22;2295;51.050;14.608;2023-06-14T03:25:40;7.90;99.90
4566;DHT22;2295;51.050;14.608;2023-06-14T03:28:09;7.90;99.90
4566;DHT22;2295;51.050;14.608;2023-06-14T03:30:37;7.80;99.90
4566;DHT22;2295;51.050;14.608;2023-06-14T03:33:07;7.80;99.90
4566;DHT22;2295;51.050;14.608;2023-06-14T03:35:35;7.70;99.90
4566;DHT22;2295;51.050;14.608;2023-06-14T03:38:04;7.70;99.90
4566;DHT22;2295;51.050;14.608;2023-06-14T03:40:32;7.60;99.90
4566;DHT22;2295;51.050;14.608;2023-06-14T03:43:00;7.60;99.90
4566;DHT22;2295;51.050;14.608;2023-06-14T03:45:28;7.50;99.90
4566;DHT22;2295;51.050;14.608;2023-06-14T03:47:57;7.50;99.90
4566;DHT22;2295;51.050;14.608;2023-06-14T03:50:29;7.50;99.90
4566;DHT22;2295;51.050;14.608;2023-06-14T03:52:59;7.50;99.90
4566;DHT22;2295;51.050;14.608;2023-06-14T03:55:28;7.40;99.90
4566;DHT22;2295;51.050;14.608;2023-06-14T03:58:01;7.50;99.90
4566;DHT22;2295;51.050;14.608;2023-06-14T04:00:29;7.50;99.90
4566;DHT22;2295;51.050;14.608;2023-06-14T04:02:58;7.50;99.90
4566;DHT22;2295;51.050;14.608;2023-06-14T04:05:30;7.60;99.90
4566;DHT22;2295;51.050;14.608;2023-06-14T04:07:58;7.60;99.90
4566;DHT22;2295;51.050;14.608;2023-06-14T04:10:30;7.70;99.90
4566;DHT22;2295;51.050;14.608;2023-06-14T04:12:59;7.80;99.90
4566;DHT22;2295;51.050;14.608;2023-06-14T04:15:28;7.90;99.90
4566;DHT22;2295;51.050;14.608;2023-06-14T04:17:56;7.90;99.90
4566;DHT22;2295;51.050;14.608;2023-06-14T04:20:25;8.00;99.90
4566;DHT22;2295;51.050;14.608;2023-06-14T04:22:56;8.10;99.90
4566;DHT22;2295;51.050;14.608;2023-06-14T04:25:28;8.30;99.90
4566;DHT22;2295;51.050;14.608;2023-06-14T04:27:59;8.50;99.90
4566;DHT22;2295;51.050;14.608;2023-06-14T04:30:28;8.60;99.90
4566;DHT22;2295;51.050;14.608;2023-06-14T04:32:58;8.80;99.90
4566;DHT22;2295;51.050;14.608;2023-06-14T04:35:27;8.90;99.90
4566;DHT22;2295;51.050;14.608;2023-06-14T04:37:57;9.00;99.90
4566;DHT22;2295;51.050;14.608;2023-06-14T04:40:26;9.20;99.90
4566;DHT22;2295;51.050;14.608;2023-06-14T04:42:54;9.30;99.90
4566;DHT22;2295;51.050;14.608;2023-06-14T04:45:22;9.30;99.90
4566;DHT22;2295;51.050;14.608;2023-06-14T04:47:51;9.30;99.90
4566;DHT22;2295;51.050;14.608;2023-06-14T04:50:24;9.30;99.90
4566;DHT22;2295;51.050;14.608;2023-06-14T04:52:53;9.30;99.90
4566;DHT22;2295;51.050;14.608;2023-06-14T04:55:23;9.40;99.90
4566;DHT22;2295;51.050;14.608;2023-06-14T04:57:51;9.70;99.90
4566;DHT22;2295;51.050;14.608;2023-06-14T05:00:21;9.90;99.90
4566;DHT22;2295;51.050;14.608;2023-06-14T05:02:50;10.20;99.90
4566;DHT22;2295;51.050;14.608;2023-06-14T05:05:20;10.50;99.90
4566;DHT22;2295;51.050;14.608;2023-06-14T05:07:48;10.80;99.90
4566;DHT22;2295;51.050;14.608;2023-06-14T05:10:17;11.30;99.90
4566;DHT22;2295;51.050;14.608;2023-06-14T05:12:47;11.90;99.90
4566;DHT22;2295;51.050;14.608;2023-06-14T05:15:16;12.70;99.90
4566;DHT22;2295;51.050;14.608;2023-06-14T05:17:45;13.30;99.90
4566;DHT22;2295;51.050;14.608;2023-06-14T05:20:17;13.20;99.90
4566;DHT22;2295;51.050;14.608;2023-06-14T05:22:45;13.60;99.90
4566;DHT22;2295;51.050;14.608;2023-06-14T05:25:15;14.00;99.90
4566;DHT22;2295;51.050;14.608;2023-06-14T05:27:44;14.60;99.90
4566;DHT22;2295;51.050;14.608;2023-06-14T05:30:14;14.90;99.90
4566;DHT22;2295;51.050;14.608;2023-06-14T05:32:42;15.30;99.90
4566;DHT22;2295;51.050;14.608;2023-06-14T05:35:11;16.00;99.90
4566;DHT22;2295;51.050;14.608;2023-06-14T05:37:40;16.40;99.90
4566;DHT22;2295;51.050;14.608;2023-06-14T05:40:09;16.60;99.90
4566;DHT22;2295;51.050;14.608;2023-06-14T05:42:38;16.90;99.90
4566;DHT22;2295;51.050;14.608;2023-06-14T05:45:07;17.10;99.90
4566;DHT22;2295;51.050;14.608;2023-06-14T05:47:37;17.40;99.90
4566;DHT22;2295;51.050;14.608;2023-06-14T05:50:06;17.50;99.90
4566;DHT22;2295;51.050;14.608;2023-06-14T05:52:34;17.50;99.90
4566;DHT22;2295;51.050;14.608;2023-06-14T05:55:04;17.80;99.90
4566;DHT22;2295;51.050;14.608;2023-06-14T05:57:32;17.80;99.90
4566;DHT22;2295;51.050;14.608;2023-06-14T06:00:01;18.00;99.90
4566;DHT22;2295;51.050;14.608;2023-06-14T06:02:38;18.10;99.90
4566;DHT22;2295;51.050;14.608;2023-06-14T06:05:06;18.50;99.90
4566;DHT22;2295;51.050;14.608;2023-06-14T06:07:35;18.80;99.90
4566;DHT22;2295;51.050;14.608;2023-06-14T06:10:05;18.70;99.90
4566;DHT22;2295;51.050;14.608;2023-06-14T06:12:33;18.80;99.90
4566;DHT22;2295;51.050;14.608;2023-06-14T06:15:01;18.80;99.80
4566;DHT22;2295;51.050;14.608;2023-06-14T06:17:31;18.90;99.90
4566;DHT22;2295;51.050;14.608;2023-06-14T06:20:20;19.60;99.40
4566;DHT22;2295;51.050;14.608;2023-06-14T06:22:54;19.90;96.20
4566;DHT22;2295;51.050;14.608;2023-06-14T06:25:23;19.80;96.20
4566;DHT22;2295;51.050;14.608;2023-06-14T06:27:53;20.10;95.60
4566;DHT22;2295;51.050;14.608;2023-06-14T06:30:21;20.60;97.50
4566;DHT22;2295;51.050;14.608;2023-06-14T06:32:50;21.20;91.70
4566;DHT22;2295;51.050;14.608;2023-06-14T06:35:20;20.40;92.00
4566;DHT22;2295;51.050;14.608;2023-06-14T06:37:48;18.80;94.10
4566;DHT22;2295;51.050;14.608;2023-06-14T06:40:16;17.30;98.40
4566;DHT22;2295;51.050;14.608;2023-06-14T06:42:45;16.40;99.90
4566;DHT22;2295;51.050;14.608;2023-06-14T06:45:13;16.30;99.90
4566;DHT22;2295;51.050;14.608;2023-06-14T06:47:42;16.40;99.90
4566;DHT22;2295;51.050;14.608;2023-06-14T06:50:13;16.20;99.90
4566;DHT22;2295;51.050;14.608;2023-06-14T06:52:43;16.10;99.90
4566;DHT22;2295;51.050;14.608;2023-06-14T06:55:12;16.20;99.90
4566;DHT22;2295;51.050;14.608;2023-06-14T06:57:42;16.40;99.90
4566;DHT22;2295;51.050;14.608;2023-06-14T07:00:11;17.10;99.90
4566;DHT22;2295;51.050;14.608;2023-06-14T07:02:40;18.10;99.90
4566;DHT22;2295;51.050;14.608;2023-06-14T07:05:08;18.90;99.20
4566;DHT22;2295;51.050;14.608;2023-06-14T07:07:37;19.10;95.50
4566;DHT22;2295;51.050;14.608;2023-06-14T07:10:07;19.20;95.30
4566;DHT22;2295;51.050;14.608;2023-06-14T07:12:36;19.20;93.80
4566;DHT22;2295;51.050;14.608;2023-06-14T07:15:07;19.00;95.20
4566;DHT22;2295;51.050;14.608;2023-06-14T07:17:36;18.90;93.70
4566;DHT22;2295;51.050;14.608;2023-06-14T07:20:05;18.90;95.30
4566;DHT22;2295;51.050;14.608;2023-06-14T07:22:40;18.90;94.30
4566;DHT22;2295;51.050;14.608;2023-06-14T07:25:12;19.00;95.80
4566;DHT22;2295;51.050;14.608;2023-06-14T07:27:43;18.20;95.90
4566;DHT22;2295;51.050;14.608;2023-06-14T07:30:12;17.90;97.50
4566;DHT22;2295;51.050;14.608;2023-06-14T07:32:40;17.60;99.00
4566;DHT22;2295;51.050;14.608;2023-06-14T07:35:09;18.00;99.00
4566;DHT22;2295;51.050;14.608;2023-06-14T07:37:38;17.80;95.50
4566;DHT22;2295;51.050;14.608;2023-06-14T07:40:07;17.80;97.00
4566;DHT22;2295;51.050;14.608;2023-06-14T07:42:38;17.60;94.30
4566;DHT22;2295;51.050;14.608;2023-06-14T07:45:07;17.20;99.10
4566;DHT22;2295;51.050;14.608;2023-06-14T07:47:35;17.30;94.70
4566;DHT22;2295;51.050;14.608;2023-06-14T07:50:05;17.80;95.50
4566;DHT22;2295;51.050;14.608;2023-06-14T07:52:35;18.70;95.80
4566;DHT22;2295;51.050;14.608;2023-06-14T07:55:04;18.90;92.20
4566;DHT22;2295;51.050;14.608;2023-06-14T07:57:33;19.70;92.10
4566;DHT22;2295;51.050;14.608;2023-06-14T08:00:04;19.50;91.40
4566;DHT22;2295;51.050;14.608;2023-06-14T08:02:34;19.70;90.00
4566;DHT22;2295;51.050;14.608;2023-06-14T08:05:03;19.50;92.00
4566;DHT22;2295;51.050;14.608;2023-06-14T08:07:31;20.70;94.00
4566;DHT22;2295;51.050;14.608;2023-06-14T08:09:59;21.60;86.30
4566;DHT22;2295;51.050;14.608;2023-06-14T08:12:28;21.70;82.70
4566;DHT22;2295;51.050;14.608;2023-06-14T08:14:56;21.50;77.50
4566;DHT22;2295;51.050;14.608;2023-06-14T08:17:42;21.00;78.10
4566;DHT22;2295;51.050;14.608;2023-06-14T08:20:11;20.20;80.10
4566;DHT22;2295;51.050;14.608;2023-06-14T08:22:40;20.10;90.40
4566;DHT22;2295;51.050;14.608;2023-06-14T08:25:09;19.40;81.70
4566;DHT22;2295;51.050;14.608;2023-06-14T08:27:39;18.50;90.20
4566;DHT22;2295;51.050;14.608;2023-06-14T08:30:09;18.10;91.00
4566;DHT22;2295;51.050;14.608;2023-06-14T08:32:37;18.50;92.30
4566;DHT22;2295;51.050;14.608;2023-06-14T08:35:08;18.80;89.70
4566;DHT22;2295;51.050;14.608;2023-06-14T08:37:38;18.90;90.40
4566;DHT22;2295;51.050;14.608;2023-06-14T08:40:18;19.00;89.80
4566;DHT22;2295;51.050;14.608;2023-06-14T08:42:51;19.30;93.50
4566;DHT22;2295;51.050;14.608;2023-06-14T08:45:20;19.30;86.90
4566;DHT22;2295;51.050;14.608;2023-06-14T08:47:54;19.80;89.40
4566;DHT22;2295;51.050;14.608;2023-06-14T08:50:27;20.30;83.70
4566;DHT22;2295;51.050;14.608;2023-06-14T08:53:00;19.50;84.70
4566;DHT22;2295;51.050;14.608;2023-06-14T08:55:31;18.80;85.40
4566;DHT22;2295;51.050;14.608;2023-06-14T08:58:04;18.30;89.30
4566;DHT22;2295;51.050;14.608;2023-06-14T09:00:33;18.40;91.30
4566;DHT22;2295;51.050;14.608;2023-06-14T09:03:01;19.80;90.60
4566;DHT22;2295;51.050;14.608;2023-06-14T09:05:32;20.60;85.50
4566;DHT22;2295;51.050;14.608;2023-06-14T09:08:00;21.50;83.80
4566;DHT22;2295;51.050;14.608;2023-06-14T09:10:33;23.00;80.60
4566;DHT22;2295;51.050;14.608;2023-06-14T09:13:02;23.60;69.30
4566;DHT22;2295;51.050;14.608;2023-06-14T09:15:30;23.10;66.00
4566;DHT22;2295;51.050;14.608;2023-06-14T09:18:01;23.00;68.80
4566;DHT22;2295;51.050;14.608;2023-06-14T09:20:31;23.70;67.40
4566;DHT22;2295;51.050;14.608;2023-06-14T09:23:00;22.90;64.00
4566;DHT22;2295;51.050;14.608;2023-06-14T09:25:29;22.50;67.90
4566;DHT22;2295;51.050;14.608;2023-06-14T09:28:07;23.70;69.10
4566;DHT22;2295;51.050;14.608;2023-06-14T09:30:37;23.20;65.40
4566;DHT22;2295;51.050;14.608;2023-06-14T09:33:05;22.80;68.00
4566;DHT22;2295;51.050;14.608;2023-06-14T09:35:35;22.10;69.70
4566;DHT22;2295;51.050;14.608;2023-06-14T09:38:04;22.00;71.70
4566;DHT22;2295;51.050;14.608;2023-06-14T09:40:35;22.50;70.70
4566;DHT22;2295;51.050;14.608;2023-06-14T09:43:07;21.80;70.40
4566;DHT22;2295;51.050;14.608;2023-06-14T09:45:38;21.20;72.10
4566;DHT22;2295;51.050;14.608;2023-06-14T09:48:07;21.50;73.50
4566;DHT22;2295;51.050;14.608;2023-06-14T09:50:39;22.00;74.80
4566;DHT22;2295;51.050;14.608;2023-06-14T09:53:10;21.60;72.00
4566;DHT22;2295;51.050;14.608;2023-06-14T09:55:41;22.50;73.70
4566;DHT22;2295;51.050;14.608;2023-06-14T09:58:10;23.80;68.50
4566;DHT22;2295;51.050;14.608;2023-06-14T10:00:39;23.70;63.50
4566;DHT22;2295;51.050;14.608;2023-06-14T10:03:12;21.90;66.90
4566;DHT22;2295;51.050;14.608;2023-06-14T10:05:45;21.00;72.80
4566;DHT22;2295;51.050;14.608;2023-06-14T10:08:15;21.10;75.00
4566;DHT22;2295;51.050;14.608;2023-06-14T10:10:44;21.20;72.80
4566;DHT22;2295;51.050;14.608;2023-06-14T10:13:14;21.80;75.00
4566;DHT22;2295;51.050;14.608;2023-06-14T10:15:50;23.30;68.60
4566;DHT22;2295;51.050;14.608;2023-06-14T10:18:28;23.10;66.50
4566;DHT22;2295;51.050;14.608;2023-06-14T10:21:06;22.50;71.90
4566;DHT22;2295;51.050;14.608;2023-06-14T10:23:40;22.70;73.60
4566;DHT22;2295;51.050;14.608;2023-06-14T10:26:18;24.40;70.50
4566;DHT22;2295;51.050;14.608;2023-06-14T10:28:59;24.70;61.30
4566;DHT22;2295;51.050;14.608;2023-06-14T10:31:40;23.80;61.10
4566;DHT22;2295;51.050;14.608;2023-06-14T10:34:10;21.20;68.80
4566;DHT22;2295;51.050;14.608;2023-06-14T10:36:43;21.30;74.60
4566;DHT22;2295;51.050;14.608;2023-06-14T10:39:16;21.90;74.30
4566;DHT22;2295;51.050;14.608;2023-06-14T10:41:52;22.70;70.90
4566;DHT22;2295;51.050;14.608;2023-06-14T10:44:34;23.10;64.00
4566;DHT22;2295;51.050;14.608;2023-06-14T10:47:10;23.70;63.00
4566;DHT22;2295;51.050;14.608;2023-06-14T10:49:41;24.40;61.80
4566;DHT22;2295;51.050;14.608;2023-06-14T10:52:12;25.00;62.60
4566;DHT22;2295;51.050;14.608;2023-06-14T10:55:08;25.10;63.60
4566;DHT22;2295;51.050;14.608;2023-06-14T10:57:40;24.80;59.90
4566;DHT22;2295;51.050;14.608;2023-06-14T11:00:12;24.50;70.40
4566;DHT22;2295;51.050;14.608;2023-06-14T11:02:53;24.40;61.80
4566;DHT22;2295;51.050;14.608;2023-06-14T11:05:26;24.80;64.20
4566;DHT22;2295;51.050;14.608;2023-06-14T11:08:26;25.40;60.10
4566;DHT22;2295;51.050;14.608;2023-06-14T11:10:59;23.30;59.30
4566;DHT22;2295;51.050;14.608;2023-06-14T11:13:27;22.40;63.10
4566;DHT22;2295;51.050;14.608;2023-06-14T11:15:58;21.90;68.30
4566;DHT22;2295;51.050;14.608;2023-06-14T11:18:28;21.90;69.80
4566;DHT22;2295;51.050;14.608;2023-06-14T11:20:56;23.40;69.90
4566;DHT22;2295;51.050;14.608;2023-06-14T11:23:26;25.00;60.80
4566;DHT22;2295;51.050;14.608;2023-06-14T11:25:54;25.50;56.60
4566;DHT22;2295;51.050;14.608;2023-06-14T11:28:36;24.60;64.50
4566;DHT22;2295;51.050;14.608;2023-06-14T11:31:08;24.30;62.60
4566;DHT22;2295;51.050;14.608;2023-06-14T11:33:37;22.00;64.70
4566;DHT22;2295;51.050;14.608;2023-06-14T11:36:06;21.00;71.10
4566;DHT22;2295;51.050;14.608;2023-06-14T11:38:37;21.50;75.40
4566;DHT22;2295;51.050;14.608;2023-06-14T11:41:05;22.20;67.40
4566;DHT22;2295;51.050;14.608;2023-06-14T11:43:34;22.00;67.70
4566;DHT22;2295;51.050;14.608;2023-06-14T11:46:03;21.90;67.70
4566;DHT22;2295;51.050;14.608;2023-06-14T11:48:37;21.80;69.00
4566;DHT22;2295;51.050;14.608;2023-06-14T11:51:06;21.50;71.60
4566;DHT22;2295;51.050;14.608;2023-06-14T11:53:37;22.10;71.10
4566;DHT22;2295;51.050;14.608;2023-06-14T11:56:05;21.60;69.30
4566;DHT22;2295;51.050;14.608;2023-06-14T11:58:34;21.40;69.00
4566;DHT22;2295;51.050;14.608;2023-06-14T12:01:03;21.60;69.40
4566;DHT22;2295;51.050;14.608;2023-06-14T12:03:32;20.60;70.80
4566;DHT22;2295;51.050;14.608;2023-06-14T12:06:07;20.20;74.40
4566;DHT22;2295;51.050;14.608;2023-06-14T12:08:38;20.20;75.70
4566;DHT22;2295;51.050;14.608;2023-06-14T12:11:11;20.10;75.20
4566;DHT22;2295;51.050;14.608;2023-06-14T12:13:41;19.80;77.30
4566;DHT22;2295;51.050;14.608;2023-06-14T12:16:10;19.50;78.20
4566;DHT22;2295;51.050;14.608;2023-06-14T12:18:40;19.20;81.20
4566;DHT22;2295;51.050;14.608;2023-06-14T12:21:10;19.20;81.50
4566;DHT22;2295;51.050;14.608;2023-06-14T12:23:42;19.10;82.70
4566;DHT22;2295;51.050;14.608;2023-06-14T12:26:13;19.00;80.80
4566;DHT22;2295;51.050;14.608;2023-06-14T12:28:43;19.00;83.20
4566;DHT22;2295;51.050;14.608;2023-06-14T12:31:13;19.30;84.30
4566;DHT22;2295;51.050;14.608;2023-06-14T12:33:42;19.50;80.60
4566;DHT22;2295;51.050;14.608;2023-06-14T12:36:13;19.50;81.40
4566;DHT22;2295;51.050;14.608;2023-06-14T12:38:43;19.50;80.30
4566;DHT22;2295;51.050;14.608;2023-06-14T12:41:13;19.40;79.80
4566;DHT22;2295;51.050;14.608;2023-06-14T12:43:45;19.40;78.90
4566;DHT22;2295;51.050;14.608;2023-06-14T12:46:13;19.80;84.20
4566;DHT22;2295;51.050;14.608;2023-06-14T12:48:42;20.80;82.70
4566;DHT22;2295;51.050;14.608;2023-06-14T12:51:10;21.20;77.00
4566;DHT22;2295;51.050;14.608;2023-06-14T12:53:39;21.20;75.90
4566;DHT22;2295;51.050;14.608;2023-06-14T12:56:09;21.80;72.10
4566;DHT22;2295;51.050;14.608;2023-06-14T12:58:37;21.50;71.90
4566;DHT22;2295;51.050;14.608;2023-06-14T13:01:05;21.00;69.30
4566;DHT22;2295;51.050;14.608;2023-06-14T13:03:34;21.00;73.90
4566;DHT22;2295;51.050;14.608;2023-06-14T13:06:05;21.00;67.20
4566;DHT22;2295;51.050;14.608;2023-06-14T13:08:33;21.00;70.60
4566;DHT22;2295;51.050;14.608;2023-06-14T13:11:02;20.90;72.10
4566;DHT22;2295;51.050;14.608;2023-06-14T13:13:31;20.70;71.30
4566;DHT22;2295;51.050;14.608;2023-06-14T13:16:02;19.70;71.90
4566;DHT22;2295;51.050;14.608;2023-06-14T13:18:30;18.90;76.70
4566;DHT22;2295;51.050;14.608;2023-06-14T13:20:59;18.70;78.80
4566;DHT22;2295;51.050;14.608;2023-06-14T13:23:28;18.50;80.40
4566;DHT22;2295;51.050;14.608;2023-06-14T13:25:56;18.50;82.30
4566;DHT22;2295;51.050;14.608;2023-06-14T13:28:27;18.80;84.10
4566;DHT22;2295;51.050;14.608;2023-06-14T13:30:57;19.10;80.60
4566;DHT22;2295;51.050;14.608;2023-06-14T13:33:25;19.30;80.30
4566;DHT22;2295;51.050;14.608;2023-06-14T13:35:53;19.40;80.10
4566;DHT22;2295;51.050;14.608;2023-06-14T13:38:22;19.50;78.20
4566;DHT22;2295;51.050;14.608;2023-06-14T13:40:50;19.40;79.30
4566;DHT22;2295;51.050;14.608;2023-06-14T13:43:18;19.80;77.50
4566;DHT22;2295;51.050;14.608;2023-06-14T13:45:47;19.90;75.70
4566;DHT22;2295;51.050;14.608;2023-06-14T13:48:16;19.90;76.10
4566;DHT22;2295;51.050;14.608;2023-06-14T13:50:45;20.10;85.00
4566;DHT22;2295;51.050;14.608;2023-06-14T13:53:13;20.30;86.00
4566;DHT22;2295;51.050;14.608;2023-06-14T13:55:42;21.30;86.00
4566;DHT22;2295;51.050;14.608;2023-06-14T13:58:10;22.70;75.20
4566;DHT22;2295;51.050;14.608;2023-06-14T14:00:42;23.20;66.40
4566;DHT22;2295;51.050;14.608;2023-06-14T14:03:11;23.80;69.60
4566;DHT22;2295;51.050;14.608;2023-06-14T14:05:40;24.50;65.20
4566;DHT22;2295;51.050;14.608;2023-06-14T14:08:09;25.10;63.00
4566;DHT22;2295;51.050;14.608;2023-06-14T14:10:37;25.10;59.80
4566;DHT22;2295;51.050;14.608;2023-06-14T14:13:07;25.60;60.80
4566;DHT22;2295;51.050;14.608;2023-06-14T14:15:35;26.10;55.90
4566;DHT22;2295;51.050;14.608;2023-06-14T14:18:04;26.60;56.30
4566;DHT22;2295;51.050;14.608;2023-06-14T14:20:32;26.60;50.50
4566;DHT22;2295;51.050;14.608;2023-06-14T14:23:02;26.70;50.00
4566;DHT22;2295;51.050;14.608;2023-06-14T14:25:30;26.90;50.40
4566;DHT22;2295;51.050;14.608;2023-06-14T14:27:58;26.70;51.10
4566;DHT22;2295;51.050;14.608;2023-06-14T14:30:27;26.90;56.00
4566;DHT22;2295;51.050;14.608;2023-06-14T14:32:55;27.00;50.90
4566;DHT22;2295;51.050;14.608;2023-06-14T14:35:24;26.50;50.20
4566;DHT22;2295;51.050;14.608;2023-06-14T14:37:57;26.30;51.90
4566;DHT22;2295;51.050;14.608;2023-06-14T14:40:27;26.60;53.70
4566;DHT22;2295;51.050;14.608;2023-06-14T14:42:55;27.20;48.90
4566;DHT22;2295;51.050;14.608;2023-06-14T14:45:23;27.40;47.60
4566;DHT22;2295;51.050;14.608;2023-06-14T14:47:51;26.70;46.00
4566;DHT22;2295;51.050;14.608;2023-06-14T14:50:22;26.90;49.50
4566;DHT22;2295;51.050;14.608;2023-06-14T14:52:50;26.70;48.90
4566;DHT22;2295;51.050;14.608;2023-06-14T14:55:18;26.30;49.80
4566;DHT22;2295;51.050;14.608;2023-06-14T14:57:48;25.30;49.30
4566;DHT22;2295;51.050;14.608;2023-06-14T15:00:17;23.90;50.80
4566;DHT22;2295;51.050;14.608;2023-06-14T15:02:46;23.70;51.90
4566;DHT22;2295;51.050;14.608;2023-06-14T15:05:14;23.40;54.90
4566;DHT22;2295;51.050;14.608;2023-06-14T15:07:42;23.20;54.00
4566;DHT22;2295;51.050;14.608;2023-06-14T15:10:12;23.60;52.50
4566;DHT22;2295;51.050;14.608;2023-06-14T15:12:40;23.50;52.00
4566;DHT22;2295;51.050;14.608;2023-06-14T15:15:10;23.40;55.70
4566;DHT22;2295;51.050;14.608;2023-06-14T15:17:39;23.00;57.00
4566;DHT22;2295;51.050;14.608;2023-06-14T15:20:08;22.70;56.50
4566;DHT22;2295;51.050;14.608;2023-06-14T15:22:39;22.00;57.70
4566;DHT22;2295;51.050;14.608;2023-06-14T15:25:08;21.30;58.60
4566;DHT22;2295;51.050;14.608;2023-06-14T15:27:36;20.80;60.60
4566;DHT22;2295;51.050;14.608;2023-06-14T15:30:06;21.40;58.90
4566;DHT22;2295;51.050;14.608;2023-06-14T15:32:39;22.60;56.90
4566;DHT22;2295;51.050;14.608;2023-06-14T15:35:08;23.30;57.00
4566;DHT22;2295;51.050;14.608;2023-06-14T15:37:36;24.10;53.40
4566;DHT22;2295;51.050;14.608;2023-06-14T15:40:06;25.30;52.90
4566;DHT22;2295;51.050;14.608;2023-06-14T15:42:34;26.30;49.80
4566;DHT22;2295;51.050;14.608;2023-06-14T15:45:03;27.00;47.80
4566;DHT22;2295;51.050;14.608;2023-06-14T15:47:31;27.70;46.90
4566;DHT22;2295;51.050;14.608;2023-06-14T15:50:01;27.30;44.90
4566;DHT22;2295;51.050;14.608;2023-06-14T15:52:31;26.20;45.40
4566;DHT22;2295;51.050;14.608;2023-06-14T15:55:00;24.30;47.10
4566;DHT22;2295;51.050;14.608;2023-06-14T15:57:28;22.60;51.30
4566;DHT22;2295;51.050;14.608;2023-06-14T15:59:56;21.80;55.90
4566;DHT22;2295;51.050;14.608;2023-06-14T16:02:25;20.90;58.90
4566;DHT22;2295;51.050;14.608;2023-06-14T16:04:53;20.40;62.50
4566;DHT22;2295;51.050;14.608;2023-06-14T16:07:23;20.10;62.90